Ascension, Argentina
Current Conditions -  °F | °C
As of 4:00 AM on Thursday 23 Oct 2014 (Local Time) from SAAR Reporting Station
Clear Clear  
Wind Chill: 66°   Ceiling: Unl
Heat Index: 66°   Visibility: 6mi
Dew Point: 61°   Wind: 2mph
Humidity: 83%   Direction: 50°NE
Pressure: 29.94"   Gusts: NA
Location:  34.18°S, 61.12°W
Report Text: SAAR 230700Z 05002KT CAVOK 19/16 Q1014
Loading
Personal Weather Stations






























Interactive Weather Map
Tropical Storm Tracking
New forecast layout! Learn more

10-Day Weather Forecast

Advertisements
Track Severe Weather on mobile